createdAt,value
2023-04-11T08:14:47.310Z,65.19
2023-04-11T08:17:50.059Z,65.19
2023-04-11T08:20:52.855Z,72.73
2023-04-11T08:23:55.447Z,72.44
2023-04-11T08:26:57.835Z,65.09
2023-04-11T08:30:00.316Z,65.59
2023-04-11T08:33:02.432Z,68.83
2023-04-11T08:36:09.680Z,65.85
2023-04-11T08:39:11.932Z,66.06
2023-04-11T08:42:23.227Z,69.00
2023-04-11T08:45:25.573Z,64.09
2023-04-11T08:48:28.331Z,63.02
2023-04-11T08:51:31.469Z,63.31
2023-04-11T08:54:33.858Z,64.47
2023-04-11T08:57:38.158Z,61.36
2023-04-11T09:00:40.648Z,62.93
2023-04-11T09:04:02.483Z,62.60
2023-04-11T09:07:05.704Z,66.85
2023-04-11T09:10:20.902Z,64.00
2023-04-11T09:13:24.347Z,63.71
2023-04-11T09:16:27.034Z,63.23
2023-04-11T09:19:31.791Z,62.68
2023-04-11T09:22:37.044Z,65.60
2023-04-11T09:25:45.572Z,63.77
2023-04-11T09:28:54.897Z,63.07
2023-04-11T09:31:57.406Z,68.05
2023-04-11T09:35:18.528Z,62.38
2023-04-11T09:38:28.038Z,61.46
2023-04-11T09:41:32.312Z,64.03
2023-04-11T09:44:37.437Z,61.46
2023-04-11T09:47:39.643Z,60.22
2023-04-11T09:50:43.076Z,60.50
2023-04-11T09:53:45.570Z,60.22
2023-04-11T09:56:48.995Z,59.72
2023-04-11T09:59:52.853Z,59.90
2023-04-11T10:02:56.335Z,60.97
2023-04-11T10:05:58.898Z,57.95
2023-04-11T10:09:12.253Z,63.42
2023-04-11T10:12:31.554Z,62.02
2023-04-11T10:15:33.694Z,67.91
2023-04-11T10:18:37.072Z,61.79
2023-04-11T10:21:40.895Z,58.43
2023-04-11T10:25:16.752Z,55.89
2023-04-11T10:28:30.846Z,61.52
2023-04-11T10:32:05.756Z,59.56
2023-04-11T10:35:16.853Z,68.05
2023-04-11T10:38:48.250Z,66.80
2023-04-11T10:41:50.488Z,59.24
2023-04-11T10:45:14.508Z,61.18
2023-04-11T10:48:16.647Z,59.65
2023-04-11T10:51:30.123Z,60.02
2023-04-11T10:54:32.256Z,67.68
2023-04-11T10:58:03.518Z,57.41
2023-04-11T11:01:21.288Z,58.18
2023-04-11T11:04:36.594Z,64.34
2023-04-11T11:07:39.012Z,59.94
2023-04-11T11:10:43.503Z,66.65
2023-04-11T11:13:53.270Z,62.23
2023-04-11T11:16:55.896Z,63.64
2023-04-11T11:19:58.231Z,55.83
2023-04-11T11:23:02.707Z,57.65
2023-04-11T11:26:05.016Z,53.17
2023-04-11T11:29:08.334Z,56.44
2023-04-11T11:32:21.277Z,52.32
2023-04-11T11:35:24.727Z,50.77
2023-04-11T11:38:28.739Z,53.53
2023-04-11T11:41:33.518Z,53.94
2023-04-11T11:44:35.767Z,52.88
2023-04-11T11:47:56.633Z,52.23
2023-04-11T11:50:58.926Z,50.89
2023-04-11T11:54:11.248Z,53.94
2023-04-11T11:57:22.648Z,60.32
2023-04-11T12:00:27.081Z,52.73
2023-04-11T12:03:29.671Z,51.06
2023-04-11T12:06:32.386Z,52.36
2023-04-11T12:09:34.771Z,52.26
2023-04-11T12:12:41.909Z,52.91
2023-04-11T12:15:46.540Z,52.06
2023-04-11T12:18:48.656Z,52.87
2023-04-11T12:21:51.522Z,56.09
2023-04-11T12:25:06.385Z,50.24
2023-04-11T12:28:09.620Z,49.06
2023-04-11T12:31:12.474Z,52.38
2023-04-11T12:34:14.971Z,47.83
2023-04-11T12:37:17.138Z,49.44
2023-04-11T12:40:19.763Z,47.47
2023-04-11T12:43:21.935Z,50.95
2023-04-11T12:46:24.469Z,45.80
2023-04-11T12:49:28.189Z,47.94
2023-04-11T12:52:30.945Z,46.73
2023-04-11T12:55:34.883Z,47.92
2023-04-11T12:58:37.339Z,47.43
2023-04-11T13:01:39.517Z,49.24
2023-04-11T13:04:42.092Z,48.97
2023-04-11T13:07:45.421Z,48.69
2023-04-11T13:10:48.155Z,52.46
2023-04-11T13:13:51.596Z,48.20
2023-04-11T13:16:54.142Z,47.59
2023-04-11T13:19:56.264Z,46.67
2023-04-11T13:22:58.673Z,48.66
2023-04-11T13:26:01.079Z,45.17
2023-04-11T13:29:03.578Z,49.00
2023-04-11T13:32:06.606Z,44.51
2023-04-11T13:35:09.343Z,48.65
2023-04-11T13:38:12.537Z,45.64
2023-04-11T13:41:15.078Z,45.71
2023-04-11T13:44:17.695Z,47.05
2023-04-11T13:47:20.211Z,46.62
2023-04-11T13:50:22.368Z,46.46
2023-04-11T13:53:24.743Z,49.23
2023-04-11T13:56:27.193Z,45.58
2023-04-11T13:59:29.540Z,44.85
2023-04-11T14:02:31.737Z,44.83
2023-04-11T14:05:35.560Z,45.19
2023-04-11T14:08:37.723Z,47.80
2023-04-11T14:11:40.694Z,46.46
2023-04-11T14:14:42.775Z,50.25
2023-04-11T14:17:46.840Z,45.23
